Time;durP1;ratioP1;P1;durP2;ratioP2;P2;SDS_P1;SDS_P2;PMS_P1;PMS_P2;Temp;Humidity;BMP_temperature;BMP_pressure;BME280_temperature;BME280_humidity;BME280_pressure;Samples;Min_cycle;Max_cycle;Signal;HPM_P1;HPM_P2
2022/07/28 00:00:05;;;;;;;8.00;1.93;;;18.50;86.30;;;;;;5005564;28;20272;-79
2022/07/28 00:02:31;;;;;;;3.35;1.40;;;18.40;87.60;;;;;;4992595;28;20089;-79
2022/07/28 00:04:57;;;;;;;2.10;1.30;;;18.40;87.50;;;;;;4966855;28;20199;-79
2022/07/28 00:07:22;;;;;;;5.87;1.37;;;18.30;87.30;;;;;;4983181;28;20090;-79
2022/07/28 00:09:48;;;;;;;4.33;2.30;;;18.20;88.20;;;;;;4984274;28;20031;-79
2022/07/28 00:12:14;;;;;;;2.10;1.57;;;18.20;89.30;;;;;;4985090;28;20328;-79
2022/07/28 00:14:40;;;;;;;6.30;1.73;;;18.10;90.40;;;;;;4970195;28;20033;-79
2022/07/28 00:17:05;;;;;;;4.57;1.60;;;18.10;90.30;;;;;;4986463;28;20047;-79
2022/07/28 00:19:31;;;;;;;3.33;1.50;;;18.10;90.30;;;;;;4986297;28;20241;-79
2022/07/28 00:21:57;;;;;;;8.30;1.80;;;18.10;90.00;;;;;;4970517;28;20065;-79
2022/07/28 00:24:23;;;;;;;3.80;1.83;;;18.00;90.50;;;;;;4991200;28;20089;-79
2022/07/28 00:26:49;;;;;;;7.63;2.43;;;18.00;90.60;;;;;;4992571;28;20382;-79
2022/07/28 00:29:15;;;;;;;3.75;1.98;;;18.00;90.50;;;;;;5025159;28;20052;-79
2022/07/28 00:31:40;;;;;;;6.07;2.20;;;18.00;90.50;;;;;;5021918;28;20030;-79
2022/07/28 00:34:06;;;;;;;3.40;1.80;;;17.90;90.70;;;;;;5005213;28;20202;-79
2022/07/28 00:36:32;;;;;;;5.10;1.47;;;17.90;90.40;;;;;;5006802;28;20037;-79
2022/07/28 00:38:58;;;;;;;4.30;1.53;;;17.90;91.20;;;;;;5008010;28;20027;-79
2022/07/28 00:41:23;;;;;;;5.93;1.67;;;17.90;91.20;;;;;;5007297;28;20086;-79
2022/07/28 00:43:50;;;;;;;1.97;1.40;;;17.90;91.20;;;;;;5007919;28;20046;-79
2022/07/28 00:46:19;;;;;;;2.78;1.40;;;17.90;91.30;;;;;;4991722;28;20026;-79
2022/07/28 00:48:48;;;;;;;3.53;1.60;;;17.80;91.40;;;;;;5009233;28;20275;-79
2022/07/28 00:51:15;;;;;;;4.78;1.83;;;17.70;91.60;;;;;;5009141;28;20093;-78
2022/07/28 00:53:41;;;;;;;4.40;1.88;;;17.70;91.60;;;;;;5005796;28;20048;-78
2022/07/28 00:56:07;;;;;;;5.40;1.70;;;17.60;92.00;;;;;;5009558;28;20049;-79
2022/07/28 00:58:34;;;;;;;5.17;1.40;;;17.70;92.30;;;;;;5009296;28;20060;-79
2022/07/28 01:01:00;;;;;;;3.38;1.85;;;17.60;92.80;;;;;;5008249;28;20025;-79
2022/07/28 01:03:25;;;;;;;4.20;1.90;;;17.60;92.60;;;;;;4990578;28;20022;-79
2022/07/28 01:06:20;;;;;;;2.03;1.80;;;17.60;92.60;;;;;;5004873;28;20042;-78
2022/07/28 01:09:20;;;;;;;4.32;1.88;;;17.60;92.90;;;;;;4989517;28;20312;-79
2022/07/28 01:12:17;;;;;;;2.67;1.77;;;17.60;93.10;;;;;;5004411;28;20018;-79
2022/07/28 01:14:54;;;;;;;3.35;1.80;;;17.60;93.50;;;;;;5005646;28;20050;-79
2022/07/28 01:17:47;;;;;;;2.15;1.75;;;17.50;93.30;;;;;;5005071;28;20022;-79
2022/07/28 01:20:22;;;;;;;4.45;1.70;;;17.50;93.20;;;;;;4988300;28;20022;-79
2022/07/28 01:23:19;;;;;;;2.58;1.75;;;17.50;93.20;;;;;;5004445;28;20018;-79
2022/07/28 01:26:01;;;;;;;3.55;1.58;;;17.40;92.90;;;;;;4997876;28;20094;-80
2022/07/28 01:28:56;;;;;;;2.38;1.70;;;17.40;93.10;;;;;;4989892;28;20041;-79
2022/07/28 01:31:24;;;;;;;5.10;1.92;;;17.40;93.70;;;;;;4978729;28;20034;-79
2022/07/28 01:33:59;;;;;;;1.92;1.45;;;17.30;93.80;;;;;;4987536;28;20226;-79
2022/07/28 01:36:28;;;;;;;2.85;1.70;;;17.30;94.10;;;;;;5003494;28;20026;-79
2022/07/28 01:38:54;;;;;;;3.83;1.92;;;17.30;94.00;;;;;;4987609;28;20089;-80
2022/07/28 01:41:22;;;;;;;7.00;1.80;;;17.30;94.40;;;;;;5003559;28;20029;-79
2022/07/28 01:43:55;;;;;;;5.00;1.67;;;17.30;94.90;;;;;;5003195;28;20025;-79
2022/07/28 01:46:21;;;;;;;4.13;2.13;;;17.30;95.20;;;;;;5003185;28;20022;-79
2022/07/28 01:48:47;;;;;;;3.53;1.63;;;17.30;94.60;;;;;;5003787;28;20054;-80
2022/07/28 01:51:13;;;;;;;5.47;2.10;;;17.30;94.70;;;;;;4987599;28;20060;-80
2022/07/28 01:53:38;;;;;;;6.23;2.00;;;17.30;94.50;;;;;;5003606;28;20022;-80
2022/07/28 01:56:04;;;;;;;4.57;1.73;;;17.30;94.30;;;;;;4987336;28;20037;-80
2022/07/28 01:58:30;;;;;;;2.50;1.83;;;17.30;95.20;;;;;;4987147;28;20022;-79
2022/07/28 02:00:56;;;;;;;2.73;2.47;;;17.30;95.00;;;;;;4986636;28;20014;-79
2022/07/28 02:03:22;;;;;;;3.67;1.70;;;17.20;95.50;;;;;;5002875;28;20030;-79
2022/07/28 02:05:49;;;;;;;4.35;2.10;;;17.20;95.50;;;;;;4971032;28;20022;-80
2022/07/28 02:08:15;;;;;;;2.28;1.92;;;17.20;95.80;;;;;;5003321;28;20030;-80
2022/07/28 02:10:42;;;;;;;5.63;2.08;;;17.10;95.90;;;;;;4987952;28;20022;-80
2022/07/28 02:13:08;;;;;;;4.13;1.83;;;17.10;96.10;;;;;;4987610;28;20448;-80
2022/07/28 02:15:34;;;;;;;3.53;1.52;;;17.10;96.10;;;;;;5003194;28;20045;-79
2022/07/28 02:17:59;;;;;;;4.13;2.07;;;17.10;95.90;;;;;;5003072;28;20026;-79
2022/07/28 02:20:25;;;;;;;2.63;1.87;;;17.00;96.00;;;;;;5003314;28;20360;-80
2022/07/28 02:22:51;;;;;;;5.47;1.93;;;17.10;96.50;;;;;;4986824;28;20309;-79
2022/07/28 02:25:18;;;;;;;3.85;1.70;;;17.00;96.60;;;;;;4987610;28;20284;-79
2022/07/28 02:28:00;;;;;;;2.75;2.03;;;17.00;96.50;;;;;;5002831;28;20056;-79
2022/07/28 02:30:39;;;;;;;3.50;1.98;;;17.00;97.50;;;;;;5002626;28;20022;-79
2022/07/28 02:33:15;;;;;;;5.50;2.03;;;17.00;97.10;;;;;;5002465;28;20046;-79
2022/07/28 02:36:16;;;;;;;3.40;1.65;;;17.00;96.40;;;;;;5002284;28;20030;-79
2022/07/28 02:38:45;;;;;;;5.22;1.90;;;17.00;97.40;;;;;;5001134;28;20038;-79
2022/07/28 02:41:27;;;;;;;12.05;2.60;;;17.00;97.60;;;;;;5002966;28;20030;-80
2022/07/28 02:44:00;;;;;;;3.90;1.90;;;17.00;96.70;;;;;;4987564;28;20038;-79
2022/07/28 02:46:31;;;;;;;4.60;1.83;;;17.00;96.70;;;;;;5002853;28;20230;-79
2022/07/28 02:49:05;;;;;;;4.50;2.00;;;17.00;97.10;;;;;;5003024;28;20022;-79
2022/07/28 02:51:30;;;;;;;3.53;1.98;;;17.00;97.40;;;;;;5003353;28;20018;-79
2022/07/28 02:53:56;;;;;;;4.20;2.13;;;17.00;97.70;;;;;;4986717;28;20080;-79
2022/07/28 02:56:23;;;;;;;;;;;16.90;97.30;;;;;;5003448;28;20054;-79
2022/07/28 02:58:50;;;;;;;3.25;1.67;;;16.90;97.20;;;;;;5002835;28;20220;-79
2022/07/28 03:01:17;;;;;;;7.50;2.83;;;16.80;97.50;;;;;;4970184;28;20154;-79
2022/07/28 03:03:45;;;;;;;4.55;1.98;;;16.80;97.50;;;;;;5002437;28;20085;-80
2022/07/28 03:06:11;;;;;;;3.55;1.70;;;16.80;97.60;;;;;;5002715;28;20317;-79
2022/07/28 03:08:37;;;;;;;5.10;2.30;;;16.80;97.70;;;;;;5003055;28;20045;-79
2022/07/28 03:11:11;;;;;;;3.00;1.77;;;16.80;98.00;;;;;;4986186;28;20262;-79
2022/07/28 03:13:37;;;;;;;4.53;2.00;;;16.70;98.40;;;;;;5002210;28;20054;-79
2022/07/28 03:16:03;;;;;;;4.73;2.10;;;16.70;98.40;;;;;;4986112;28;20069;-79
2022/07/28 03:18:29;;;;;;;2.95;1.92;;;16.60;98.60;;;;;;4986426;28;20085;-79
2022/07/28 03:20:55;;;;;;;3.90;2.40;;;16.60;99.50;;;;;;4985985;28;20364;-79
2022/07/28 03:23:44;;;;;;;5.93;2.13;;;16.60;99.80;;;;;;5002195;28;20018;-79
2022/07/28 03:26:40;;;;;;;3.00;1.90;;;16.50;99.90;;;;;;4972763;28;20030;-79
2022/07/28 03:29:06;;;;;;;4.85;2.08;;;16.50;99.30;;;;;;4997406;28;20040;-78
2022/07/28 03:31:32;;;;;;;5.63;2.80;;;16.50;99.70;;;;;;5002213;28;20105;-78
2022/07/28 03:33:58;;;;;;;3.73;2.70;;;16.50;99.90;;;;;;5002817;28;20042;-78
2022/07/28 03:36:41;;;;;;;6.00;2.30;;;16.50;99.90;;;;;;5003812;28;20612;-78
2022/07/28 03:39:10;;;;;;;5.05;2.50;;;16.50;99.90;;;;;;5002844;28;20014;-78
2022/07/28 03:41:39;;;;;;;3.88;2.47;;;16.50;99.90;;;;;;4986778;28;20041;-78
2022/07/28 03:44:05;;;;;;;6.43;2.60;;;16.40;99.90;;;;;;4992528;28;20025;-78
2022/07/28 03:46:32;;;;;;;9.10;2.17;;;16.40;99.90;;;;;;4990016;28;20026;-78
2022/07/28 03:48:58;;;;;;;3.00;2.25;;;16.40;99.90;;;;;;5009200;28;20097;-78
2022/07/28 03:51:27;;;;;;;4.93;2.40;;;16.40;99.90;;;;;;4995289;28;20080;-78
2022/07/28 03:53:52;;;;;;;4.75;2.20;;;16.50;99.90;;;;;;4993143;28;20026;-78
2022/07/28 03:56:18;;;;;;;3.70;2.07;;;16.40;99.90;;;;;;4992672;28;20038;-79
2022/07/28 03:58:44;;;;;;;4.93;2.07;;;16.40;99.90;;;;;;5008747;28;20284;-78
2022/07/28 04:01:09;;;;;;;4.83;2.20;;;16.40;99.90;;;;;;5041966;23;20091;-78
2022/07/28 04:03:35;;;;;;;4.43;2.20;;;16.40;99.90;;;;;;5022826;28;20021;-78
2022/07/28 04:06:01;;;;;;;5.03;2.20;;;16.40;99.90;;;;;;5024756;28;20021;-78
2022/07/28 04:08:27;;;;;;;6.23;2.50;;;16.40;99.90;;;;;;5024737;28;20029;-79
2022/07/28 04:10:53;;;;;;;4.13;2.10;;;16.40;99.90;;;;;;4994007;28;20271;-78
2022/07/28 04:13:19;;;;;;;8.97;3.87;;;16.40;99.90;;;;;;5004772;28;20057;-77
2022/07/28 04:15:45;;;;;;;3.97;1.92;;;16.40;99.90;;;;;;5004714;28;20038;-79
2022/07/28 04:18:10;;;;;;;5.47;2.40;;;16.40;99.90;;;;;;5004790;28;20034;-78
2022/07/28 04:20:36;;;;;;;7.43;1.97;;;16.40;99.90;;;;;;5004873;28;20014;-78
2022/07/28 04:23:02;;;;;;;3.80;2.30;;;16.40;99.90;;;;;;5004605;28;20022;-78
2022/07/28 04:25:28;;;;;;;4.90;2.47;;;16.40;99.90;;;;;;5004938;28;20026;-78
2022/07/28 04:27:54;;;;;;;5.97;2.30;;;16.40;99.90;;;;;;5004723;28;20213;-78
2022/07/28 04:30:23;;;;;;;7.13;2.40;;;16.40;99.90;;;;;;5004432;28;20022;-78
2022/07/28 04:32:50;;;;;;;3.83;2.47;;;16.50;99.90;;;;;;5004221;28;20028;-77
2022/07/28 04:35:16;;;;;;;3.65;2.08;;;16.40;99.90;;;;;;4988316;28;20066;-79
2022/07/28 04:37:42;;;;;;;4.95;2.10;;;16.40;99.90;;;;;;5003425;28;20018;-79
2022/07/28 04:40:10;;;;;;;5.23;2.40;;;16.40;99.90;;;;;;5000844;28;20391;-80
2022/07/28 04:42:37;;;;;;;4.25;2.25;;;16.40;99.90;;;;;;4971292;28;20073;-79
2022/07/28 04:45:05;;;;;;;3.58;1.95;;;16.40;99.90;;;;;;5002875;28;20257;-79
2022/07/28 04:47:30;;;;;;;4.68;2.25;;;16.50;99.90;;;;;;5004223;28;20041;-79
2022/07/28 04:49:56;;;;;;;6.37;2.07;;;16.50;99.90;;;;;;5004192;28;20018;-79
2022/07/28 04:52:22;;;;;;;4.85;2.30;;;16.40;99.90;;;;;;5002788;28;20049;-78
2022/07/28 04:54:48;;;;;;;3.60;2.10;;;16.40;99.90;;;;;;5003997;28;20179;-79
2022/07/28 04:57:14;;;;;;;5.77;2.10;;;16.40;99.90;;;;;;5003935;28;20286;-80
2022/07/28 04:59:40;;;;;;;7.27;2.40;;;16.40;99.90;;;;;;4987379;28;20102;-73
2022/07/28 05:02:06;;;;;;;2.63;1.90;;;16.40;99.90;;;;;;5004075;28;20045;-73
2022/07/28 05:04:32;;;;;;;6.60;2.10;;;16.40;99.90;;;;;;5004343;28;20072;-72
2022/07/28 05:06:58;;;;;;;7.77;2.73;;;16.40;99.90;;;;;;5003500;28;20128;-72
2022/07/28 05:09:24;;;;;;;2.50;2.20;;;16.50;99.90;;;;;;5003744;28;20340;-72
2022/07/28 05:11:49;;;;;;;4.20;2.23;;;16.50;99.90;;;;;;5005015;28;20026;-73
2022/07/28 05:14:16;;;;;;;8.17;3.30;;;16.60;99.90;;;;;;5003450;28;20068;-73
2022/07/28 05:16:42;;;;;;;5.20;2.30;;;16.70;99.90;;;;;;5003403;28;20090;-73
2022/07/28 05:19:07;;;;;;;6.57;2.73;;;16.70;99.90;;;;;;5004875;28;20030;-73
2022/07/28 05:21:33;;;;;;;7.27;2.60;;;16.70;99.90;;;;;;5004696;28;20042;-73
2022/07/28 05:23:59;;;;;;;5.87;2.47;;;16.70;99.90;;;;;;5003242;28;20064;-72
2022/07/28 05:26:27;;;;;;;5.97;2.30;;;16.70;99.90;;;;;;5004624;28;20057;-72
2022/07/28 05:28:53;;;;;;;4.10;2.08;;;16.80;99.90;;;;;;4987541;28;20050;-74
2022/07/28 05:31:19;;;;;;;12.23;2.35;;;16.80;99.90;;;;;;4998820;28;20023;-72
2022/07/28 05:33:45;;;;;;;5.20;2.37;;;16.90;99.90;;;;;;5000160;28;20026;-73
2022/07/28 05:36:11;;;;;;;2.73;2.07;;;16.90;99.90;;;;;;5004027;28;20026;-73
2022/07/28 05:38:37;;;;;;;3.43;1.90;;;17.10;99.90;;;;;;5001011;28;20033;-73
2022/07/28 05:41:02;;;;;;;4.67;2.20;;;17.10;99.90;;;;;;5003371;28;20046;-73
2022/07/28 05:43:28;;;;;;;5.17;2.17;;;17.20;99.90;;;;;;5003685;28;20018;-73
2022/07/28 05:45:54;;;;;;;7.47;3.00;;;17.40;99.90;;;;;;5002888;28;20026;-74
2022/07/28 05:48:20;;;;;;;6.90;2.03;;;17.60;99.90;;;;;;5004187;28;20265;-73
2022/07/28 05:50:47;;;;;;;4.13;2.03;;;17.70;99.60;;;;;;5002941;28;20022;-74
2022/07/28 05:53:13;;;;;;;4.68;2.20;;;17.80;98.70;;;;;;5002749;28;20026;-74
2022/07/28 05:55:39;;;;;;;7.43;2.40;;;18.00;98.90;;;;;;5003919;28;20089;-73
2022/07/28 05:58:04;;;;;;;4.87;2.03;;;18.10;94.30;;;;;;5002566;28;20316;-73
2022/07/28 06:00:32;;;;;;;6.80;2.07;;;18.20;94.90;;;;;;5003352;28;20026;-73
2022/07/28 06:03:00;;;;;;;7.13;2.40;;;18.30;94.20;;;;;;5003291;28;20014;-73
2022/07/28 06:05:26;;;;;;;9.77;3.00;;;18.30;93.40;;;;;;5003825;28;20332;-73
2022/07/28 06:07:52;;;;;;;6.53;2.57;;;18.40;93.20;;;;;;5003041;28;20054;-73
2022/07/28 06:10:20;;;;;;;6.30;2.00;;;18.40;93.60;;;;;;5001851;28;20326;-73
2022/07/28 06:12:54;;;;;;;3.97;1.90;;;18.60;93.10;;;;;;5002372;28;20244;-74
2022/07/28 06:15:23;;;;;;;2.65;1.73;;;18.60;92.30;;;;;;5001999;28;20030;-74
2022/07/28 06:17:53;;;;;;;4.78;2.00;;;18.70;92.80;;;;;;4986264;28;20093;-75
2022/07/28 06:20:21;;;;;;;7.18;2.20;;;18.80;93.00;;;;;;5003540;28;20318;-75
2022/07/28 06:22:48;;;;;;;7.05;2.40;;;18.90;91.60;;;;;;5002859;28;20064;-75
2022/07/28 06:25:23;;;;;;;4.63;2.22;;;19.00;90.20;;;;;;5002615;28;20023;-73
2022/07/28 06:27:53;;;;;;;8.30;2.53;;;19.10;90.90;;;;;;5004206;28;20034;-74
2022/07/28 06:30:19;;;;;;;5.28;1.98;;;19.10;90.30;;;;;;5002354;28;20109;-73
2022/07/28 06:32:45;;;;;;;4.37;2.23;;;19.20;89.70;;;;;;5002141;28;20022;-74
2022/07/28 06:35:15;;;;;;;5.63;2.60;;;19.30;88.70;;;;;;5002513;28;20022;-75
2022/07/28 06:37:45;;;;;;;9.00;2.15;;;19.40;86.00;;;;;;5018017;28;20364;-75
2022/07/28 06:40:11;;;;;;;5.32;2.47;;;19.50;85.90;;;;;;5006289;28;20324;-74
2022/07/28 06:42:38;;;;;;;8.07;2.00;;;19.60;83.90;;;;;;5005595;28;20032;-74
2022/07/28 06:45:05;;;;;;;6.65;2.55;;;19.80;85.00;;;;;;5022753;28;20095;-74
2022/07/28 06:47:30;;;;;;;11.40;2.90;;;19.90;80.60;;;;;;5021827;28;20021;-74
2022/07/28 06:49:56;;;;;;;5.93;2.57;;;19.90;81.80;;;;;;5022964;28;20064;-75
2022/07/28 06:52:22;;;;;;;7.00;3.10;;;20.00;81.10;;;;;;5021918;28;20052;-76
2022/07/28 06:54:51;;;;;;;4.53;2.87;;;20.10;79.10;;;;;;5005165;28;20271;-75
2022/07/28 06:57:18;;;;;;;8.25;2.33;;;20.20;80.10;;;;;;5005960;28;20045;-75
2022/07/28 06:59:45;;;;;;;5.50;2.50;;;20.20;79.40;;;;;;5005191;28;20017;-75
2022/07/28 07:02:15;;;;;;;5.45;2.25;;;20.30;78.70;;;;;;5022982;28;20080;-74
2022/07/28 07:04:41;;;;;;;3.95;2.00;;;20.40;77.10;;;;;;5003246;28;20041;-75
2022/07/28 07:07:06;;;;;;;4.97;2.25;;;20.40;77.90;;;;;;5002092;28;20026;-74
2022/07/28 07:09:32;;;;;;;6.27;2.37;;;20.50;76.30;;;;;;5003018;28;20072;-75
2022/07/28 07:11:58;;;;;;;5.37;2.57;;;20.60;76.30;;;;;;5002000;28;20270;-75
2022/07/28 07:14:24;;;;;;;7.03;2.27;;;20.70;77.10;;;;;;5001779;28;20049;-75
2022/07/28 07:16:49;;;;;;;6.50;2.43;;;20.80;77.20;;;;;;5001621;28;20022;-75
2022/07/28 07:19:16;;;;;;;7.90;3.17;;;20.80;74.70;;;;;;5002829;28;20022;-75
2022/07/28 07:21:41;;;;;;;6.10;2.70;;;20.80;74.80;;;;;;5004821;28;20014;-75
2022/07/28 07:24:10;;;;;;;5.13;2.80;;;20.80;75.00;;;;;;5006084;28;20224;-75
2022/07/28 07:26:36;;;;;;;5.50;2.78;;;20.90;72.60;;;;;;5006162;28;20233;-74
2022/07/28 07:29:02;;;;;;;7.50;3.15;;;20.90;73.40;;;;;;5005809;28;20022;-74
2022/07/28 07:31:28;;;;;;;5.10;2.67;;;20.90;72.70;;;;;;5005637;28;20043;-74
2022/07/28 07:33:54;;;;;;;8.97;2.63;;;20.90;74.20;;;;;;5005161;28;20264;-74
2022/07/28 07:36:20;;;;;;;10.95;3.88;;;20.90;73.80;;;;;;4989447;28;20030;-74
2022/07/28 07:38:46;;;;;;;7.45;2.47;;;20.90;73.60;;;;;;5006752;28;20232;-75
2022/07/28 07:41:12;;;;;;;10.07;2.58;;;20.90;72.70;;;;;;5026285;28;20085;-75
2022/07/28 07:43:37;;;;;;;4.67;2.70;;;20.90;72.90;;;;;;5005136;28;20035;-74
2022/07/28 07:46:05;;;;;;;8.30;2.63;;;20.90;73.70;;;;;;4992666;28;20027;-74
2022/07/28 07:48:31;;;;;;;7.03;2.90;;;20.90;73.70;;;;;;4969839;28;20069;-74
2022/07/28 07:50:57;;;;;;;7.03;2.70;;;20.90;73.90;;;;;;4987101;28;20030;-74
2022/07/28 07:53:23;;;;;;;4.77;2.43;;;20.90;74.70;;;;;;5002005;28;20022;-75
2022/07/28 07:55:50;;;;;;;4.93;2.25;;;21.00;72.90;;;;;;5002002;28;20030;-75
2022/07/28 07:58:15;;;;;;;7.85;2.67;;;21.10;73.40;;;;;;4985916;28;20253;-75
2022/07/28 08:00:41;;;;;;;5.53;2.47;;;21.20;73.20;;;;;;4985324;28;20065;-75
2022/07/28 08:03:07;;;;;;;4.43;2.37;;;21.30;72.10;;;;;;5006614;28;20018;-74
2022/07/28 08:05:33;;;;;;;5.10;3.00;;;21.30;72.20;;;;;;4988868;28;20023;-74
2022/07/28 08:07:58;;;;;;;7.10;3.00;;;21.40;71.10;;;;;;5005152;28;20030;-74
2022/07/28 08:10:24;;;;;;;4.37;2.50;;;21.50;71.40;;;;;;5006100;28;20019;-74
2022/07/28 08:12:50;;;;;;;4.53;2.27;;;21.60;69.70;;;;;;5021304;28;20026;-75
2022/07/28 08:15:15;;;;;;;6.63;2.40;;;21.70;70.60;;;;;;5025717;28;20026;-75
2022/07/28 08:17:41;;;;;;;5.33;2.57;;;21.70;68.30;;;;;;5025779;28;20033;-74
2022/07/28 08:20:08;;;;;;;5.30;2.53;;;21.70;69.60;;;;;;5025574;28;20025;-74
2022/07/28 08:22:34;;;;;;;7.60;2.50;;;21.70;69.50;;;;;;4975715;28;20021;-74
2022/07/28 08:25:00;;;;;;;7.63;3.00;;;21.70;69.60;;;;;;5008055;28;20106;-74
2022/07/28 08:27:26;;;;;;;6.95;2.70;;;21.80;69.90;;;;;;5007966;28;20068;-74
2022/07/28 08:29:52;;;;;;;3.83;2.30;;;21.90;73.80;;;;;;5008485;28;20462;-75
2022/07/28 08:32:18;;;;;;;8.27;3.50;;;21.90;75.80;;;;;;5006921;28;20034;-76
2022/07/28 08:34:43;;;;;;;8.83;2.73;;;22.00;70.50;;;;;;4989644;28;20217;-75
2022/07/28 08:37:09;;;;;;;3.87;2.80;;;22.10;68.80;;;;;;5005595;28;20345;-75
2022/07/28 08:39:35;;;;;;;6.20;2.87;;;22.20;68.70;;;;;;5005645;28;20222;-75
2022/07/28 08:42:19;;;;;;;9.23;3.33;;;22.30;68.90;;;;;;5004485;28;20030;-75
2022/07/28 08:44:55;;;;;;;9.55;3.08;;;22.40;68.40;;;;;;5016466;28;20104;-75
2022/07/28 08:47:21;;;;;;;5.82;2.45;;;22.40;67.10;;;;;;5024350;28;20325;-75
2022/07/28 08:49:47;;;;;;;7.37;3.57;;;22.50;67.60;;;;;;5007686;28;20052;-75
2022/07/28 08:52:13;;;;;;;6.60;2.70;;;22.60;65.90;;;;;;5024215;28;20033;-75
2022/07/28 08:54:42;;;;;;;7.18;3.83;;;22.60;67.30;;;;;;5023447;28;20036;-75
2022/07/28 08:57:19;;;;;;;7.00;3.25;;;22.70;67.80;;;;;;5023663;28;20025;-75
2022/07/28 08:59:46;;;;;;;8.02;3.03;;;22.80;65.30;;;;;;5008675;28;20038;-75
2022/07/28 09:02:12;;;;;;;;;;;22.90;65.90;;;;;;5007526;28;20045;-75
2022/07/28 09:04:38;;;;;;;5.75;2.67;;;23.00;63.20;;;;;;5005633;28;19929;-75
2022/07/28 09:07:04;;;;;;;;;;;23.10;63.10;;;;;;5004433;28;20028;-75
2022/07/28 09:09:31;;;;;;;5.00;2.72;;;23.10;64.00;;;;;;5004052;28;19905;-75
2022/07/28 09:12:02;;;;;;;4.75;3.13;;;23.20;62.90;;;;;;5003970;28;20475;-75
2022/07/28 09:14:27;;;;;;;5.40;2.80;;;23.20;63.10;;;;;;5004639;28;20336;-74
2022/07/28 09:16:53;;;;;;;9.17;3.87;;;23.20;62.00;;;;;;5003463;28;20022;-74
2022/07/28 09:19:19;;;;;;;7.03;3.27;;;23.20;61.80;;;;;;4987506;28;20261;-73
2022/07/28 09:21:45;;;;;;;11.93;3.00;;;23.30;62.70;;;;;;5004865;28;20065;-74
2022/07/28 09:24:21;;;;;;;6.53;2.40;;;23.40;62.90;;;;;;5003416;28;20014;-73
2022/07/28 09:27:19;;;;;;;16.30;3.22;;;23.50;62.00;;;;;;4988712;28;20333;-73
2022/07/28 09:29:46;;;;;;;;;;;23.60;65.00;;;;;;4982928;28;20048;-74
2022/07/28 09:32:14;;;;;;;7.20;2.47;;;23.70;62.40;;;;;;5003430;28;19906;-74
2022/07/28 09:34:44;;;;;;;4.78;2.78;;;23.70;60.90;;;;;;5003193;28;20452;-73
2022/07/28 09:37:25;;;;;;;6.25;2.60;;;23.80;60.90;;;;;;5003274;28;20037;-74
2022/07/28 09:39:53;;;;;;;5.85;2.63;;;23.90;61.00;;;;;;5003328;28;20026;-73
2022/07/28 09:42:19;;;;;;;9.73;2.55;;;23.90;61.20;;;;;;4987287;28;20324;-74
2022/07/28 09:45:00;;;;;;;6.38;2.40;;;23.90;58.90;;;;;;5003064;28;20052;-73
2022/07/28 09:47:27;;;;;;;5.25;2.10;;;23.90;60.20;;;;;;4986853;28;20433;-74
2022/07/28 09:49:53;;;;;;;;;;;24.00;60.70;;;;;;5004813;28;20225;-73
2022/07/28 09:52:35;;;;;;;8.85;2.50;;;24.00;59.00;;;;;;5004350;28;19912;-74
2022/07/28 09:55:09;;;;;;;4.45;2.22;;;24.10;58.20;;;;;;5003156;28;20026;-74
2022/07/28 09:57:37;;;;;;;4.22;2.28;;;24.20;59.30;;;;;;5002822;28;20030;-74
2022/07/28 10:00:09;;;;;;;6.82;2.50;;;24.20;59.60;;;;;;5002610;28;20026;-74
2022/07/28 10:02:35;;;;;;;4.75;2.63;;;24.30;57.40;;;;;;5028359;23;20218;-73
2022/07/28 10:05:01;;;;;;;6.33;3.10;;;24.30;58.10;;;;;;5016079;28;20022;-73
2022/07/28 10:07:28;;;;;;;4.97;2.40;;;24.40;57.90;;;;;;5022380;28;20081;-73
2022/07/28 10:10:07;;;;;;;8.38;2.88;;;24.40;59.30;;;;;;5022459;28;20026;-73
2022/07/28 10:12:37;;;;;;;4.70;2.40;;;24.40;57.50;;;;;;5018986;28;20064;-73
2022/07/28 10:18:00;;;;;;;8.10;2.30;;;24.50;59.70;;;;;;5016551;28;20041;-73
2022/07/28 10:20:27;;;;;;;4.18;2.72;;;24.60;58.80;;;;;;5003798;28;20022;-73
2022/07/28 10:23:00;;;;;;;5.53;2.25;;;24.60;58.60;;;;;;5002274;28;20045;-72
2022/07/28 10:25:26;;;;;;;5.78;2.08;;;24.60;56.90;;;;;;4987078;28;20109;-73
2022/07/28 10:27:51;;;;;;;6.50;2.20;;;24.60;56.90;;;;;;5002541;28;20030;-72
2022/07/28 10:30:17;;;;;;;5.03;2.80;;;24.70;55.90;;;;;;5002681;28;20114;-72
2022/07/28 10:32:44;;;;;;;5.30;2.55;;;24.80;57.40;;;;;;5002172;28;20037;-72
2022/07/28 10:35:14;;;;;;;3.35;2.10;;;24.80;56.00;;;;;;4986396;28;20143;-72
2022/07/28 10:38:01;;;;;;;6.82;2.70;;;25.00;55.50;;;;;;4999097;28;20030;-72
2022/07/28 10:40:35;;;;;;;4.63;2.10;;;25.10;54.80;;;;;;4998948;28;20126;-73
2022/07/28 10:43:01;;;;;;;4.38;2.53;;;25.30;54.90;;;;;;4998797;28;20037;-73
2022/07/28 10:45:27;;;;;;;5.18;2.20;;;25.40;54.40;;;;;;4999146;28;20345;-72
2022/07/28 10:47:53;;;;;;;4.53;2.67;;;25.50;55.00;;;;;;4983816;28;20138;-72
2022/07/28 10:50:19;;;;;;;7.95;3.08;;;25.60;54.10;;;;;;4998906;28;20031;-72
2022/07/28 10:52:46;;;;;;;7.45;2.78;;;25.70;54.00;;;;;;4983409;28;20321;-73
2022/07/28 10:55:26;;;;;;;5.57;3.35;;;25.80;53.90;;;;;;4998368;28;20038;-72
2022/07/28 10:58:41;;;;;;;9.57;3.03;;;25.90;53.20;;;;;;4983585;28;20058;-72
2022/07/28 11:01:07;;;;;;;8.98;3.10;;;25.90;54.20;;;;;;4995724;28;20030;-72
2022/07/28 11:03:45;;;;;;;6.72;2.67;;;26.00;53.30;;;;;;4998064;28;20168;-72
2022/07/28 11:06:41;;;;;;;6.28;3.65;;;26.20;54.00;;;;;;4998291;28;20233;-72
2022/07/28 11:09:16;;;;;;;6.93;2.67;;;26.30;54.40;;;;;;4998408;28;20073;-80
2022/07/28 11:11:49;;;;;;;5.18;2.50;;;26.40;54.30;;;;;;4983402;28;20050;-79
2022/07/28 11:14:24;;;;;;;7.32;2.72;;;26.50;54.00;;;;;;4981886;28;20249;-79
2022/07/28 11:17:05;;;;;;;7.70;3.63;;;26.70;53.70;;;;;;4975766;28;20054;-79
2022/07/28 11:19:43;;;;;;;9.82;3.17;;;26.80;53.90;;;;;;4964164;28;20085;-80
2022/07/28 11:22:18;;;;;;;5.78;2.78;;;27.00;51.60;;;;;;4963246;29;20349;-80
2022/07/28 11:27:42;;;;;;;6.65;2.78;;;27.10;51.50;;;;;;4964304;28;20258;-79
2022/07/28 11:30:27;;;;;;;7.28;3.28;;;27.20;51.60;;;;;;4963061;28;20023;-79
2022/07/28 11:32:56;;;;;;;7.93;2.95;;;27.30;53.00;;;;;;4966409;28;20158;-78
2022/07/28 11:35:37;;;;;;;7.38;3.10;;;27.40;51.30;;;;;;4959134;28;20029;-79
2022/07/28 11:38:03;;;;;;;7.03;3.08;;;27.50;50.80;;;;;;4963096;29;20366;-78
2022/07/28 11:40:33;;;;;;;4.30;2.88;;;27.60;51.80;;;;;;4964272;29;20023;-79
2022/07/28 11:43:21;;;;;;;3.95;2.60;;;27.80;50.10;;;;;;4971564;28;20023;-78
2022/07/28 11:46:13;;;;;;;6.90;3.00;;;27.90;50.80;;;;;;4970667;28;20053;-78
2022/07/28 11:48:40;;;;;;;5.22;3.05;;;28.00;52.00;;;;;;4982916;28;20030;-81
2022/07/28 11:51:06;;;;;;;6.63;3.10;;;28.10;52.60;;;;;;4979673;28;20034;-79
2022/07/28 11:53:42;;;;;;;4.15;2.85;;;28.00;49.30;;;;;;4982698;28;20050;-78
2022/07/28 11:56:31;;;;;;;5.57;2.72;;;28.00;50.20;;;;;;4982117;28;20034;-79
2022/07/28 11:58:58;;;;;;;6.80;3.20;;;28.00;50.90;;;;;;4984768;28;20022;-78
2022/07/28 12:01:24;;;;;;;7.72;3.17;;;28.20;49.70;;;;;;4948879;28;20027;-78
2022/07/28 12:03:52;;;;;;;6.47;3.17;;;28.40;48.90;;;;;;4934396;28;20022;-78
2022/07/28 12:06:18;;;;;;;4.22;2.72;;;28.50;49.90;;;;;;4950546;28;20226;-78
2022/07/28 12:08:56;;;;;;;5.88;3.25;;;28.70;50.50;;;;;;4936504;28;20037;-79
2022/07/28 12:11:25;;;;;;;5.93;2.97;;;29.00;49.20;;;;;;4977601;28;20034;-79
2022/07/28 12:14:02;;;;;;;5.68;2.70;;;29.20;49.80;;;;;;5001388;28;20042;-79
2022/07/28 12:16:28;;;;;;;;;;;29.30;49.40;;;;;;4986078;28;20130;-78
2022/07/28 12:18:54;;;;;;;4.38;2.88;;;29.50;51.20;;;;;;4986490;28;20161;-78
2022/07/28 12:21:55;;;;;;;5.88;2.75;;;29.60;48.40;;;;;;4985449;28;20050;-79
2022/07/28 12:24:29;;;;;;;5.25;2.75;;;29.50;47.90;;;;;;4984495;28;20038;-79
2022/07/28 12:26:56;;;;;;;4.43;2.85;;;29.50;47.10;;;;;;4969062;28;20029;-79
2022/07/28 12:29:22;;;;;;;7.43;3.03;;;29.50;49.40;;;;;;5001719;28;20326;-79
2022/07/28 12:32:07;;;;;;;7.47;2.67;;;29.60;48.10;;;;;;4985435;28;20089;-79
2022/07/28 12:34:33;;;;;;;4.25;2.88;;;29.70;49.00;;;;;;4970166;28;20026;-80
2022/07/28 12:37:01;;;;;;;5.43;2.45;;;30.00;46.20;;;;;;4968880;28;20035;-79
2022/07/28 12:39:33;;;;;;;3.38;2.72;;;30.20;46.20;;;;;;4969111;28;20027;-79
2022/07/28 12:42:04;;;;;;;3.67;2.50;;;30.20;45.80;;;;;;4953606;28;20018;-79
2022/07/28 12:44:40;;;;;;;4.88;2.90;;;30.40;48.00;;;;;;4953685;28;20373;-79
2022/07/28 12:47:10;;;;;;;4.70;2.53;;;30.80;48.20;;;;;;4985052;28;20266;-79
2022/07/28 12:49:38;;;;;;;4.30;2.40;;;31.00;46.20;;;;;;4968952;28;20237;-79
2022/07/28 12:52:21;;;;;;;4.75;2.85;;;31.30;48.10;;;;;;4969069;28;20053;-79
2022/07/28 12:54:47;;;;;;;11.52;3.08;;;31.30;45.30;;;;;;4984966;28;20027;-79
2022/07/28 12:57:14;;;;;;;4.40;2.40;;;31.20;43.70;;;;;;4984995;28;20035;-79
2022/07/28 12:59:40;;;;;;;6.25;3.17;;;30.80;45.00;;;;;;4984910;28;20070;-78
2022/07/28 13:02:09;;;;;;;4.80;2.72;;;30.60;46.10;;;;;;4952562;28;20023;-79
2022/07/28 13:04:41;;;;;;;5.15;3.00;;;30.50;48.90;;;;;;4968042;28;20031;-79